Time;durP1;ratioP1;P1;durP2;ratioP2;P2;SDS_P1;SDS_P2;PMS_P1;PMS_P2;Temp;Humidity;BMP_temperature;BMP_pressure;BME280_temperature;BME280_humidity;BME280_pressure;Samples;Min_cycle;Max_cycle;Signal;HPM_P1;HPM_P2
2023/07/29 00:00:46;;;;;;;1.93;1.83;;;;;;;;;;4974486;28;20212;-55
2023/07/29 00:03:13;;;;;;;2.00;1.90;;;;;;;;;;4976195;28;20653;-55
2023/07/29 00:05:39;;;;;;;2.37;2.17;;;;;;;;;;4981354;28;20247;-55
2023/07/29 00:08:05;;;;;;;2.30;2.07;;;;;;;;;;4975924;28;20177;-55
2023/07/29 00:10:37;;;;;;;2.23;2.00;;;;;;;;;;4981037;28;20185;-54
2023/07/29 00:13:03;;;;;;;2.00;1.80;;;;;;;;;;4983031;28;20186;-54
2023/07/29 00:15:29;;;;;;;2.20;2.00;;;;;;;;;;4973505;28;20232;-55
2023/07/29 00:17:55;;;;;;;2.00;1.80;;;;;;;;;;4979198;28;20185;-55
2023/07/29 00:20:22;;;;;;;2.67;2.47;;;;;;;;;;4979097;28;20189;-54
2023/07/29 00:22:49;;;;;;;2.57;2.03;;;;;;;;;;4974275;28;20184;-55
2023/07/29 00:25:16;;;;;;;1.73;1.63;;;;;;;;;;4977672;28;20196;-54
2023/07/29 00:27:42;;;;;;;2.27;2.07;;;;;;;;;;4973650;28;20525;-54
2023/07/29 00:30:09;;;;;;;2.03;1.93;;;;;;;;;;4983599;28;20730;-54
2023/07/29 00:32:36;;;;;;;3.13;2.20;;;;;;;;;;4976268;28;20210;-54
2023/07/29 00:35:02;;;;;;;2.30;2.20;;;;;;;;;;4983184;28;20292;-54
2023/07/29 00:37:28;;;;;;;2.10;2.00;;;;;;;;;;4974859;28;20197;-54
2023/07/29 00:39:54;;;;;;;2.40;1.80;;;;;;;;;;4983029;28;20549;-53
2023/07/29 00:42:20;;;;;;;2.27;2.03;;;;;;;;;;4988132;28;20176;-54
2023/07/29 00:44:46;;;;;;;2.07;1.97;;;;;;;;;;4985520;28;20598;-54
2023/07/29 00:47:13;;;;;;;2.03;1.83;;;;;;;;;;4972962;28;20246;-54
2023/07/29 00:49:39;;;;;;;2.30;2.10;;;;;;;;;;4986074;28;20211;-54
2023/07/29 00:52:05;;;;;;;2.23;2.03;;;;;;;;;;4972289;28;20547;-55
2023/07/29 00:54:31;;;;;;;2.50;2.30;;;;;;;;;;4989495;28;20558;-54
2023/07/29 00:56:57;;;;;;;1.93;1.80;;;;;;;;;;4979412;28;20655;-53
2023/07/29 00:59:24;;;;;;;2.30;2.20;;;;;;;;;;4979901;28;20718;-55
2023/07/29 01:01:50;;;;;;;2.20;2.10;;;;;;;;;;4977083;28;20188;-54
2023/07/29 01:04:16;;;;;;;2.10;2.00;;;;;;;;;;4987372;28;20558;-54
2023/07/29 01:06:54;;;;;;;2.30;2.10;;;;;;;;;;4977620;28;20196;-54
2023/07/29 01:09:35;;;;;;;2.50;2.30;;;;;;;;;;4979208;28;20176;-54
2023/07/29 01:12:04;;;;;;;2.47;2.27;;;;;;;;;;4972262;28;20698;-54
2023/07/29 01:14:41;;;;;;;2.43;2.23;;;;;;;;;;4981154;28;20658;-54
2023/07/29 01:17:09;;;;;;;2.30;2.20;;;;;;;;;;4982470;28;20183;-54
2023/07/29 01:19:44;;;;;;;2.20;2.07;;;;;;;;;;4979954;28;20638;-55
2023/07/29 01:22:12;;;;;;;1.73;1.63;;;;;;;;;;4980386;28;20238;-54
2023/07/29 01:24:38;;;;;;;2.23;2.13;;;;;;;;;;4983478;28;20671;-55
2023/07/29 01:27:05;;;;;;;2.10;2.00;;;;;;;;;;4987422;28;20652;-55
2023/07/29 01:29:31;;;;;;;2.40;2.20;;;;;;;;;;4971935;28;20307;-54
2023/07/29 01:32:00;;;;;;;2.00;1.90;;;;;;;;;;4978754;28;20179;-55
2023/07/29 01:34:32;;;;;;;2.10;2.00;;;;;;;;;;4977505;28;20234;-54
2023/07/29 01:37:02;;;;;;;2.20;2.10;;;;;;;;;;4976239;28;20214;-55
2023/07/29 01:39:29;;;;;;;1.90;1.80;;;;;;;;;;4980168;28;20640;-55
2023/07/29 01:41:55;;;;;;;2.17;1.97;;;;;;;;;;4974470;28;20227;-55
2023/07/29 01:44:21;;;;;;;2.73;2.23;;;;;;;;;;4976874;28;20639;-55
2023/07/29 01:46:47;;;;;;;1.90;1.80;;;;;;;;;;4981611;28;20220;-55
2023/07/29 01:49:13;;;;;;;3.20;2.40;;;;;;;;;;4979838;28;20234;-55
2023/07/29 01:51:39;;;;;;;4.23;2.13;;;;;;;;;;4977218;28;20220;-55
2023/07/29 01:54:05;;;;;;;2.17;2.07;;;;;;;;;;4980208;28;20290;-55
2023/07/29 01:56:31;;;;;;;1.97;1.87;;;;;;;;;;4980337;28;20208;-55
2023/07/29 01:58:58;;;;;;;2.40;2.00;;;;;;;;;;4979996;28;20217;-54
2023/07/29 02:01:24;;;;;;;2.83;1.90;;;;;;;;;;4982294;28;20190;-54
2023/07/29 02:03:54;;;;;;;2.13;2.03;;;;;;;;;;4981208;28;20210;-55
2023/07/29 02:06:20;;;;;;;2.20;2.10;;;;;;;;;;4975033;28;20635;-54
2023/07/29 02:08:46;;;;;;;2.43;2.13;;;;;;;;;;4983206;28;20177;-54
2023/07/29 02:11:13;;;;;;;2.20;2.10;;;;;;;;;;4980721;28;20272;-54
2023/07/29 02:13:39;;;;;;;2.57;2.37;;;;;;;;;;4979040;28;20652;-55
2023/07/29 02:16:05;;;;;;;4.40;2.10;;;;;;;;;;4975876;28;20172;-55
2023/07/29 02:18:31;;;;;;;1.97;1.87;;;;;;;;;;4985454;28;20190;-55
2023/07/29 02:20:57;;;;;;;3.23;1.90;;;;;;;;;;4975828;28;20187;-55
2023/07/29 02:23:23;;;;;;;2.23;2.13;;;;;;;;;;4975931;28;20566;-55
2023/07/29 02:25:49;;;;;;;2.13;2.03;;;;;;;;;;4974030;28;20231;-55
2023/07/29 02:28:15;;;;;;;1.90;1.80;;;;;;;;;;4978413;28;20182;-55
2023/07/29 02:30:41;;;;;;;2.00;1.90;;;;;;;;;;4973673;28;20345;-55
2023/07/29 02:33:07;;;;;;;2.57;2.37;;;;;;;;;;4978339;28;20214;-55
2023/07/29 02:35:33;;;;;;;1.93;1.83;;;;;;;;;;4981213;28;20698;-56
2023/07/29 02:37:59;;;;;;;2.53;2.33;;;;;;;;;;4980024;28;20188;-56
2023/07/29 02:40:26;;;;;;;2.30;2.20;;;;;;;;;;4978306;28;20678;-55
2023/07/29 02:42:52;;;;;;;2.27;2.07;;;;;;;;;;4984132;28;20264;-55
2023/07/29 02:45:19;;;;;;;2.17;1.97;;;;;;;;;;4985614;28;20200;-55
2023/07/29 02:47:45;;;;;;;2.10;1.90;;;;;;;;;;4977501;28;20191;-56
2023/07/29 02:50:11;;;;;;;2.23;2.10;;;;;;;;;;4971339;28;20188;-55
2023/07/29 02:52:37;;;;;;;3.60;2.40;;;;;;;;;;4983503;28;20186;-55
2023/07/29 02:55:03;;;;;;;2.03;1.93;;;;;;;;;;4970380;28;20938;-55
2023/07/29 02:57:29;;;;;;;2.77;2.20;;;;;;;;;;4982238;28;20219;-55
2023/07/29 02:59:55;;;;;;;2.17;2.07;;;;;;;;;;4981358;28;20219;-56
2023/07/29 03:02:21;;;;;;;2.30;2.00;;;;;;;;;;4973294;28;20307;-55
2023/07/29 03:04:48;;;;;;;2.53;2.07;;;;;;;;;;4977091;28;20326;-55
2023/07/29 03:07:14;;;;;;;2.90;2.50;;;;;;;;;;4973894;28;20179;-55
2023/07/29 03:09:41;;;;;;;2.60;2.40;;;;;;;;;;4976324;28;20603;-54
2023/07/29 03:12:08;;;;;;;2.30;2.17;;;;;;;;;;4976878;28;20168;-55
2023/07/29 03:14:34;;;;;;;3.00;2.00;;;;;;;;;;4978872;28;20224;-55
2023/07/29 03:17:04;;;;;;;3.60;3.40;;;;;;;;;;4975366;28;20566;-55
2023/07/29 03:19:30;;;;;;;2.40;2.20;;;;;;;;;;4980354;28;20283;-55
2023/07/29 03:21:56;;;;;;;1.90;1.80;;;;;;;;;;4982092;28;20191;-55
2023/07/29 03:24:22;;;;;;;2.00;1.90;;;;;;;;;;4977947;28;20549;-53
2023/07/29 03:26:48;;;;;;;2.40;2.20;;;;;;;;;;4986066;28;20577;-55
2023/07/29 03:29:14;;;;;;;2.20;2.00;;;;;;;;;;4976320;28;20595;-55
2023/07/29 03:31:40;;;;;;;3.60;3.40;;;;;;;;;;4976280;28;20739;-55
2023/07/29 03:34:06;;;;;;;2.27;2.10;;;;;;;;;;4972289;28;20183;-55
2023/07/29 03:36:32;;;;;;;2.13;2.03;;;;;;;;;;4974907;28;20192;-55
2023/07/29 03:39:00;;;;;;;1.97;1.87;;;;;;;;;;4980079;28;20188;-54
2023/07/29 03:41:26;;;;;;;2.60;2.40;;;;;;;;;;4982164;28;20599;-55
2023/07/29 03:43:52;;;;;;;2.50;2.30;;;;;;;;;;4979706;28;20213;-53
2023/07/29 03:46:21;;;;;;;2.70;2.50;;;;;;;;;;4980491;28;20181;-53
2023/07/29 03:48:47;;;;;;;2.40;2.20;;;;;;;;;;4986171;28;20176;-53
2023/07/29 03:51:13;;;;;;;1.97;1.87;;;;;;;;;;4972323;28;20195;-54
2023/07/29 03:53:39;;;;;;;3.00;2.17;;;;;;;;;;4978107;28;20180;-53
2023/07/29 03:56:06;;;;;;;2.00;1.80;;;;;;;;;;4975737;28;20552;-54
2023/07/29 03:58:32;;;;;;;2.60;2.40;;;;;;;;;;4970238;28;21790;-53
2023/07/29 04:00:58;;;;;;;2.50;2.30;;;;;;;;;;4980226;28;20179;-53
2023/07/29 04:03:25;;;;;;;2.20;2.10;;;;;;;;;;4977402;28;20184;-54
2023/07/29 04:05:51;;;;;;;2.80;2.60;;;;;;;;;;4976493;28;20255;-54
2023/07/29 04:08:17;;;;;;;2.53;2.33;;;;;;;;;;4971544;28;20211;-53
2023/07/29 04:10:43;;;;;;;3.90;2.47;;;;;;;;;;4977433;28;20218;-53
2023/07/29 04:13:09;;;;;;;2.83;2.60;;;;;;;;;;4984265;28;20253;-54
2023/07/29 04:15:35;;;;;;;2.70;2.50;;;;;;;;;;4976208;28;20190;-54
2023/07/29 04:18:01;;;;;;;2.53;2.33;;;;;;;;;;4985102;28;20671;-55
2023/07/29 04:20:27;;;;;;;2.67;2.47;;;;;;;;;;4977562;28;20261;-54
2023/07/29 04:22:53;;;;;;;2.57;2.37;;;;;;;;;;4985067;28;20321;-55
2023/07/29 04:25:19;;;;;;;3.13;2.90;;;;;;;;;;4976946;28;20666;-54
2023/07/29 04:27:45;;;;;;;2.83;2.50;;;;;;;;;;4980398;28;20766;-54
2023/07/29 04:30:11;;;;;;;2.40;2.20;;;;;;;;;;4974440;28;20263;-53
2023/07/29 04:32:38;;;;;;;2.90;2.53;;;;;;;;;;4979540;28;20587;-53
2023/07/29 04:35:04;;;;;;;3.27;2.77;;;;;;;;;;4988735;28;20542;-54
2023/07/29 04:37:30;;;;;;;4.97;2.90;;;;;;;;;;4979103;28;20195;-54
2023/07/29 04:39:56;;;;;;;2.80;2.60;;;;;;;;;;4973582;28;20188;-53
2023/07/29 04:42:22;;;;;;;2.97;2.77;;;;;;;;;;4978794;28;20180;-54
2023/07/29 04:44:48;;;;;;;3.20;2.90;;;;;;;;;;4984385;28;20215;-55
2023/07/29 04:47:14;;;;;;;3.17;2.97;;;;;;;;;;4982334;28;20192;-54
2023/07/29 04:49:40;;;;;;;4.30;3.37;;;;;;;;;;4971793;28;20184;-55
2023/07/29 04:52:06;;;;;;;4.13;3.40;;;;;;;;;;4981726;28;20207;-56
2023/07/29 04:54:32;;;;;;;4.60;3.20;;;;;;;;;;4974032;28;20263;-56
2023/07/29 04:56:58;;;;;;;4.30;2.87;;;;;;;;;;4974280;28;20547;-56
2023/07/29 04:59:25;;;;;;;3.17;2.97;;;;;;;;;;4975384;28;20243;-54
2023/07/29 05:01:51;;;;;;;4.33;3.07;;;;;;;;;;4979728;28;20543;-54
2023/07/29 05:04:17;;;;;;;4.53;3.57;;;;;;;;;;4980029;28;20211;-54
2023/07/29 05:06:43;;;;;;;2.93;2.63;;;;;;;;;;4975038;28;20188;-54
2023/07/29 05:09:15;;;;;;;3.77;3.20;;;;;;;;;;4979776;28;20221;-54
2023/07/29 05:11:42;;;;;;;3.00;2.80;;;;;;;;;;4971996;28;20184;-54
2023/07/29 05:14:09;;;;;;;3.80;3.00;;;;;;;;;;4982281;28;20179;-54
2023/07/29 05:16:35;;;;;;;4.13;2.90;;;;;;;;;;4982992;28;20194;-53
2023/07/29 05:19:01;;;;;;;3.20;2.90;;;;;;;;;;4971901;28;20187;-54
2023/07/29 05:21:27;;;;;;;3.50;3.20;;;;;;;;;;4977014;28;20191;-53
2023/07/29 05:23:53;;;;;;;2.90;2.70;;;;;;;;;;4979082;28;20227;-53
2023/07/29 05:26:19;;;;;;;3.00;2.80;;;;;;;;;;4979115;28;20690;-53
2023/07/29 05:28:46;;;;;;;3.20;2.90;;;;;;;;;;4976927;28;20884;-54
2023/07/29 05:31:12;;;;;;;3.30;3.00;;;;;;;;;;4974392;28;20290;-54
2023/07/29 05:33:38;;;;;;;3.67;3.37;;;;;;;;;;4981626;28;20180;-54
2023/07/29 05:36:04;;;;;;;3.17;2.90;;;;;;;;;;4973498;28;20551;-54
2023/07/29 05:38:31;;;;;;;2.93;2.73;;;;;;;;;;4979462;28;20200;-54
2023/07/29 05:40:57;;;;;;;3.90;3.60;;;;;;;;;;4974567;28;20184;-54
2023/07/29 05:43:25;;;;;;;3.50;3.20;;;;;;;;;;4975110;28;20274;-53
2023/07/29 05:45:51;;;;;;;3.20;3.00;;;;;;;;;;4972206;28;20258;-53
2023/07/29 05:48:20;;;;;;;3.00;2.80;;;;;;;;;;4978461;28;20329;-53
2023/07/29 05:50:47;;;;;;;2.43;2.27;;;;;;;;;;4973816;28;20184;-53
2023/07/29 05:53:14;;;;;;;3.17;2.90;;;;;;;;;;4984106;28;20282;-53
2023/07/29 05:55:40;;;;;;;3.53;2.63;;;;;;;;;;4975768;28;20180;-53
2023/07/29 05:58:06;;;;;;;3.87;3.00;;;;;;;;;;4978992;28;20188;-53
2023/07/29 06:00:33;;;;;;;4.00;2.93;;;;;;;;;;4976832;28;20199;-53
2023/07/29 06:02:59;;;;;;;3.20;2.70;;;;;;;;;;4979418;28;20187;-53
2023/07/29 06:05:25;;;;;;;3.10;2.90;;;;;;;;;;4975835;28;20215;-53
2023/07/29 06:07:51;;;;;;;3.27;2.90;;;;;;;;;;4975045;28;20179;-53
2023/07/29 06:10:18;;;;;;;3.30;2.60;;;;;;;;;;4971179;28;20230;-53
2023/07/29 06:12:44;;;;;;;3.13;2.90;;;;;;;;;;4975030;28;20190;-53
2023/07/29 06:15:12;;;;;;;3.97;2.90;;;;;;;;;;4986838;28;20199;-53
2023/07/29 06:17:39;;;;;;;2.87;2.60;;;;;;;;;;4983867;28;20187;-54
2023/07/29 06:20:05;;;;;;;2.63;2.47;;;;;;;;;;4973783;28;20195;-55
2023/07/29 06:22:31;;;;;;;2.90;2.70;;;;;;;;;;4984506;28;20612;-56
2023/07/29 06:24:57;;;;;;;2.83;2.63;;;;;;;;;;4987405;28;20727;-56
2023/07/29 06:27:25;;;;;;;2.90;2.57;;;;;;;;;;4977836;28;20228;-56
2023/07/29 06:29:51;;;;;;;2.73;2.53;;;;;;;;;;4978788;28;20225;-56
2023/07/29 06:32:17;;;;;;;3.07;2.70;;;;;;;;;;4986208;28;20705;-55
2023/07/29 06:34:43;;;;;;;2.90;2.70;;;;;;;;;;4975772;28;20773;-56
2023/07/29 06:37:09;;;;;;;2.60;2.40;;;;;;;;;;4985396;28;20187;-56
2023/07/29 06:39:35;;;;;;;4.33;2.70;;;;;;;;;;4987820;28;20180;-55
2023/07/29 06:42:02;;;;;;;2.80;2.53;;;;;;;;;;4980874;28;20183;-55
2023/07/29 06:44:28;;;;;;;2.80;2.60;;;;;;;;;;4981057;28;20211;-55
2023/07/29 06:46:54;;;;;;;3.97;3.10;;;;;;;;;;4987936;28;20286;-55
2023/07/29 06:49:20;;;;;;;3.20;2.90;;;;;;;;;;4981631;28;20270;-55
2023/07/29 06:51:46;;;;;;;4.43;2.80;;;;;;;;;;4983596;28;20612;-55
2023/07/29 06:54:12;;;;;;;3.20;2.80;;;;;;;;;;4985468;28;20578;-57
2023/07/29 06:56:38;;;;;;;3.37;3.10;;;;;;;;;;4987056;28;20187;-55
2023/07/29 06:59:04;;;;;;;3.53;3.03;;;;;;;;;;4984450;28;20195;-55
2023/07/29 07:01:30;;;;;;;3.40;3.10;;;;;;;;;;4987821;28;20226;-55
2023/07/29 07:03:58;;;;;;;3.07;2.53;;;;;;;;;;4976738;28;20238;-55
2023/07/29 07:06:24;;;;;;;2.80;2.60;;;;;;;;;;4974475;28;20183;-55
2023/07/29 07:08:51;;;;;;;3.17;2.87;;;;;;;;;;4988167;28;20662;-55
2023/07/29 07:11:17;;;;;;;3.60;3.10;;;;;;;;;;4980003;28;20180;-55
2023/07/29 07:13:43;;;;;;;3.23;2.93;;;;;;;;;;4990738;28;20183;-56
2023/07/29 07:16:09;;;;;;;4.10;2.73;;;;;;;;;;4982037;28;20214;-55
2023/07/29 07:18:35;;;;;;;2.70;2.50;;;;;;;;;;4976766;28;20180;-55
2023/07/29 07:21:01;;;;;;;2.70;2.43;;;;;;;;;;4975046;28;20247;-54
2023/07/29 07:23:27;;;;;;;2.60;2.37;;;;;;;;;;4984152;28;20268;-55
2023/07/29 07:25:54;;;;;;;2.90;2.70;;;;;;;;;;4987601;28;20265;-56
2023/07/29 07:28:20;;;;;;;2.57;2.37;;;;;;;;;;4985153;28;20199;-55
2023/07/29 07:30:46;;;;;;;2.97;2.77;;;;;;;;;;4978671;28;20226;-53
2023/07/29 07:33:12;;;;;;;2.97;2.57;;;;;;;;;;4988412;28;20536;-52
2023/07/29 07:35:38;;;;;;;2.90;2.63;;;;;;;;;;4976585;28;20187;-53
2023/07/29 07:38:04;;;;;;;2.93;2.73;;;;;;;;;;4982973;28;20372;-52
2023/07/29 07:40:31;;;;;;;2.67;2.23;;;;;;;;;;4971538;28;20865;-52
2023/07/29 07:42:57;;;;;;;2.83;2.63;;;;;;;;;;4987887;28;20196;-52
2023/07/29 07:45:23;;;;;;;3.33;2.70;;;;;;;;;;4988107;28;20219;-53
2023/07/29 07:47:49;;;;;;;2.83;2.53;;;;;;;;;;4986760;28;20542;-53
2023/07/29 07:50:16;;;;;;;3.00;2.80;;;;;;;;;;4983530;28;20184;-52
2023/07/29 07:52:42;;;;;;;2.30;2.10;;;;;;;;;;4981973;28;20175;-53
2023/07/29 07:55:08;;;;;;;2.87;2.60;;;;;;;;;;4979487;28;20207;-52
2023/07/29 07:57:34;;;;;;;2.40;2.20;;;;;;;;;;4985918;28;20690;-52
2023/07/29 08:00:00;;;;;;;2.50;2.30;;;;;;;;;;4990669;28;20210;-52
2023/07/29 08:02:26;;;;;;;2.37;2.17;;;;;;;;;;4992288;28;20193;-52
2023/07/29 08:04:52;;;;;;;2.37;2.17;;;;;;;;;;4986817;28;20214;-52
2023/07/29 08:07:18;;;;;;;1.93;1.83;;;;;;;;;;4990109;28;20180;-52
2023/07/29 08:09:45;;;;;;;2.17;1.97;;;;;;;;;;4985899;28;20195;-52
2023/07/29 08:12:11;;;;;;;2.53;2.33;;;;;;;;;;4974914;28;20179;-52
2023/07/29 08:14:37;;;;;;;2.10;1.97;;;;;;;;;;4981887;28;20575;-53
2023/07/29 08:17:03;;;;;;;1.93;1.83;;;;;;;;;;4986539;28;20187;-52
2023/07/29 08:19:29;;;;;;;2.17;2.07;;;;;;;;;;4990235;28;20565;-52
2023/07/29 08:21:55;;;;;;;2.00;1.90;;;;;;;;;;4983735;28;20189;-53
2023/07/29 08:24:21;;;;;;;2.10;2.00;;;;;;;;;;4978294;28;20713;-52
2023/07/29 08:26:47;;;;;;;3.27;2.23;;;;;;;;;;4978449;28;20183;-52
2023/07/29 08:29:13;;;;;;;2.20;2.00;;;;;;;;;;4987987;28;20188;-52
2023/07/29 08:31:42;;;;;;;1.90;1.80;;;;;;;;;;4990796;28;20574;-52
2023/07/29 08:34:08;;;;;;;2.50;2.30;;;;;;;;;;4991668;28;20564;-52
2023/07/29 08:36:34;;;;;;;2.30;2.13;;;;;;;;;;4979447;28;20187;-52
2023/07/29 08:39:00;;;;;;;2.10;2.00;;;;;;;;;;4988431;28;20635;-51
2023/07/29 08:41:30;;;;;;;2.13;2.03;;;;;;;;;;4973204;28;20254;-52
2023/07/29 08:44:13;;;;;;;1.63;1.53;;;;;;;;;;4981416;28;20545;-52
2023/07/29 08:46:39;;;;;;;1.90;1.80;;;;;;;;;;4989351;28;20300;-52
2023/07/29 08:49:05;;;;;;;2.00;1.90;;;;;;;;;;4986122;28;20184;-53
2023/07/29 08:51:32;;;;;;;1.90;1.70;;;;;;;;;;4972706;28;20182;-52
2023/07/29 08:53:59;;;;;;;1.80;1.70;;;;;;;;;;4979667;28;20185;-53
2023/07/29 08:56:25;;;;;;;1.73;1.63;;;;;;;;;;4982827;28;20572;-53
2023/07/29 08:58:52;;;;;;;2.20;2.00;;;;;;;;;;4980745;28;20192;-53
2023/07/29 09:01:18;;;;;;;2.43;1.80;;;;;;;;;;4973521;28;20188;-53
2023/07/29 09:03:44;;;;;;;1.70;1.60;;;;;;;;;;4982520;28;20750;-52
2023/07/29 09:06:10;;;;;;;1.97;1.87;;;;;;;;;;4976351;28;20496;-52
2023/07/29 09:08:36;;;;;;;1.97;1.80;;;;;;;;;;4983572;28;20186;-52
2023/07/29 09:11:02;;;;;;;2.73;1.90;;;;;;;;;;4980842;28;20191;-53
2023/07/29 09:13:28;;;;;;;1.80;1.70;;;;;;;;;;4987246;28;20242;-53
2023/07/29 09:15:56;;;;;;;1.83;1.73;;;;;;;;;;4987793;28;20181;-53
2023/07/29 09:18:22;;;;;;;2.03;1.93;;;;;;;;;;4981447;28;20183;-52
2023/07/29 09:20:49;;;;;;;1.87;1.77;;;;;;;;;;4980853;28;20241;-52
2023/07/29 09:23:15;;;;;;;2.23;2.13;;;;;;;;;;4988169;28;20650;-53
2023/07/29 09:25:41;;;;;;;2.13;1.90;;;;;;;;;;4980751;28;20273;-53
2023/07/29 09:28:10;;;;;;;1.80;1.70;;;;;;;;;;4981188;28;20694;-53
2023/07/29 09:30:36;;;;;;;2.20;2.00;;;;;;;;;;4973511;28;20238;-53
2023/07/29 09:33:03;;;;;;;3.80;3.50;;;;;;;;;;4980238;28;20750;-53
2023/07/29 09:35:31;;;;;;;2.00;1.90;;;;;;;;;;4981813;28;20536;-53
2023/07/29 09:37:57;;;;;;;1.97;1.87;;;;;;;;;;4984737;28;20282;-53
2023/07/29 09:40:23;;;;;;;2.23;2.03;;;;;;;;;;4981187;28;20638;-52
2023/07/29 09:42:53;;;;;;;2.43;2.10;;;;;;;;;;4981681;28;20197;-53
2023/07/29 09:45:26;;;;;;;3.17;2.03;;;;;;;;;;4978848;28;20206;-53
2023/07/29 09:47:53;;;;;;;2.33;1.73;;;;;;;;;;4985257;28;20704;-53
2023/07/29 09:50:19;;;;;;;2.47;2.10;;;;;;;;;;4972755;28;20182;-56
2023/07/29 09:52:48;;;;;;;7.87;2.87;;;;;;;;;;4977570;28;20583;-56
2023/07/29 09:55:17;;;;;;;2.40;2.20;;;;;;;;;;4977626;28;20190;-56
2023/07/29 09:57:43;;;;;;;2.37;2.20;;;;;;;;;;4974328;28;20179;-56
2023/07/29 10:00:13;;;;;;;2.40;2.20;;;;;;;;;;4983843;28;20181;-56
2023/07/29 10:02:42;;;;;;;3.43;2.57;;;;;;;;;;4974290;28;20178;-57
2023/07/29 10:05:09;;;;;;;3.77;2.67;;;;;;;;;;4975022;28;20231;-56
2023/07/29 10:07:36;;;;;;;2.80;2.50;;;;;;;;;;4974729;28;20261;-54
2023/07/29 10:10:04;;;;;;;2.50;2.30;;;;;;;;;;4968569;28;20229;-54
2023/07/29 10:12:31;;;;;;;2.90;2.70;;;;;;;;;;4974416;28;20184;-54
2023/07/29 10:15:00;;;;;;;4.80;2.90;;;;;;;;;;4980189;28;20198;-54
2023/07/29 10:17:26;;;;;;;2.73;2.40;;;;;;;;;;4980229;28;20249;-54
2023/07/29 10:19:53;;;;;;;3.17;2.53;;;;;;;;;;4973504;28;20898;-54
2023/07/29 10:22:21;;;;;;;3.40;2.60;;;;;;;;;;4980981;28;20701;-54
2023/07/29 10:24:47;;;;;;;2.47;2.27;;;;;;;;;;4981626;28;20215;-54
2023/07/29 10:27:18;;;;;;;3.87;2.63;;;;;;;;;;4972413;28;20644;-54
2023/07/29 10:29:44;;;;;;;3.37;2.53;;;;;;;;;;4982940;28;20219;-54
2023/07/29 10:32:11;;;;;;;3.10;2.70;;;;;;;;;;4986093;28;20573;-54
2023/07/29 10:34:38;;;;;;;2.80;2.20;;;;;;;;;;4985127;28;20248;-54
2023/07/29 10:37:04;;;;;;;2.83;2.63;;;;;;;;;;4984943;28;20241;-54
2023/07/29 10:39:39;;;;;;;2.60;2.40;;;;;;;;;;4983736;28;20580;-54
2023/07/29 10:42:06;;;;;;;2.57;2.20;;;;;;;;;;4986943;28;20189;-54
2023/07/29 10:44:45;;;;;;;2.53;2.33;;;;;;;;;;4976682;28;20718;-53
2023/07/29 10:47:22;;;;;;;2.97;2.33;;;;;;;;;;4984451;28;20800;-54
2023/07/29 10:49:55;;;;;;;2.40;2.20;;;;;;;;;;4981208;28;20183;-54
2023/07/29 10:52:31;;;;;;;2.57;2.37;;;;;;;;;;4979019;28;20210;-54
2023/07/29 10:55:01;;;;;;;2.40;2.20;;;;;;;;;;4981929;28;20286;-54
2023/07/29 10:57:37;;;;;;;2.33;2.13;;;;;;;;;;4983988;28;20187;-54
2023/07/29 11:00:04;;;;;;;2.70;2.50;;;;;;;;;;4978788;28;20204;-52
2023/07/29 11:02:32;;;;;;;2.40;2.20;;;;;;;;;;4982484;28;20187;-52
2023/07/29 11:04:58;;;;;;;2.83;2.30;;;;;;;;;;4975316;28;20564;-52
2023/07/29 11:07:28;;;;;;;2.20;2.10;;;;;;;;;;4980246;28;20183;-53
2023/07/29 11:09:57;;;;;;;2.07;1.90;;;;;;;;;;4981841;28;20191;-52
2023/07/29 11:12:42;;;;;;;2.10;2.00;;;;;;;;;;4982939;28;20187;-52
2023/07/29 11:15:12;;;;;;;2.30;2.13;;;;;;;;;;4984722;28;20201;-52
2023/07/29 11:17:40;;;;;;;2.40;2.20;;;;;;;;;;4978682;28;20645;-52
2023/07/29 11:20:09;;;;;;;2.50;2.30;;;;;;;;;;4985507;28;20201;-53
2023/07/29 11:22:36;;;;;;;2.20;2.00;;;;;;;;;;4977236;28;20254;-52
2023/07/29 11:25:02;;;;;;;2.13;2.03;;;;;;;;;;4987889;28;20225;-53
2023/07/29 11:27:28;;;;;;;2.27;2.07;;;;;;;;;;4987359;28;20183;-53
2023/07/29 11:29:58;;;;;;;2.70;2.07;;;;;;;;;;4987850;28;20247;-52
2023/07/29 11:32:25;;;;;;;1.93;1.83;;;;;;;;;;4986915;28;20230;-52
2023/07/29 11:34:51;;;;;;;2.07;1.87;;;;;;;;;;4974550;28;20206;-52
2023/07/29 11:37:17;;;;;;;2.23;2.03;;;;;;;;;;4981155;28;20525;-53
2023/07/29 11:39:44;;;;;;;3.57;2.10;;;;;;;;;;4987099;28;20641;-52
2023/07/29 11:42:13;;;;;;;1.93;1.83;;;;;;;;;;4977866;28;20251;-52
2023/07/29 11:44:39;;;;;;;2.13;2.03;;;;;;;;;;4986868;28;20222;-52
2023/07/29 11:47:09;;;;;;;2.60;2.40;;;;;;;;;;4980458;28;20206;-52
2023/07/29 11:49:35;;;;;;;2.40;2.20;;;;;;;;;;4980760;28;20669;-52
2023/07/29 11:52:03;;;;;;;2.00;1.90;;;;;;;;;;4978679;28;20202;-52
2023/07/29 11:54:29;;;;;;;2.80;2.60;;;;;;;;;;4986946;28;20187;-52
2023/07/29 11:56:56;;;;;;;5.87;2.30;;;;;;;;;;4981207;28;20191;-52
2023/07/29 11:59:22;;;;;;;2.43;2.23;;;;;;;;;;4983786;28;20214;-52
2023/07/29 12:01:48;;;;;;;1.87;1.77;;;;;;;;;;4979649;28;20187;-52
2023/07/29 12:04:14;;;;;;;2.47;2.30;;;;;;;;;;4981417;28;20211;-52
2023/07/29 12:06:40;;;;;;;2.97;1.97;;;;;;;;;;4976428;28;20194;-52
2023/07/29 12:09:07;;;;;;;2.20;2.10;;;;;;;;;;4988371;28;20650;-52
2023/07/29 12:11:33;;;;;;;2.40;2.20;;;;;;;;;;4980319;28;21297;-52
2023/07/29 12:14:02;;;;;;;2.93;2.73;;;;;;;;;;4985107;28;20187;-52
2023/07/29 12:16:34;;;;;;;2.40;2.20;;;;;;;;;;4977485;28;20203;-52
2023/07/29 12:19:01;;;;;;;2.40;2.20;;;;;;;;;;4981446;28;20274;-51
2023/07/29 12:21:27;;;;;;;2.23;2.13;;;;;;;;;;4973608;28;20203;-52
2023/07/29 12:23:53;;;;;;;2.03;1.90;;;;;;;;;;4979445;28;20176;-52
2023/07/29 12:26:19;;;;;;;2.00;1.80;;;;;;;;;;4974880;28;20877;-52
2023/07/29 12:28:47;;;;;;;2.57;2.37;;;;;;;;;;4978708;28;20300;-52
2023/07/29 12:31:13;;;;;;;2.43;2.23;;;;;;;;;;4982927;28;20522;-52
2023/07/29 12:33:41;;;;;;;2.33;2.13;;;;;;;;;;4978509;28;20183;-51
2023/07/29 12:36:08;;;;;;;2.07;1.97;;;;;;;;;;4976887;28;20262;-51
2023/07/29 12:38:34;;;;;;;2.60;2.40;;;;;;;;;;4981569;28;20291;-51
2023/07/29 12:41:00;;;;;;;2.37;2.27;;;;;;;;;;4986640;28;20883;-51
2023/07/29 12:43:26;;;;;;;2.43;2.23;;;;;;;;;;4986139;28;20215;-51
2023/07/29 12:45:52;;;;;;;2.70;2.37;;;;;;;;;;4982683;28;20218;-52
2023/07/29 12:48:18;;;;;;;2.37;2.17;;;;;;;;;;4980904;28;20179;-51
2023/07/29 12:50:44;;;;;;;3.77;2.13;;;;;;;;;;4980465;28;20258;-51
2023/07/29 12:53:11;;;;;;;2.40;2.20;;;;;;;;;;4975617;28;20531;-51
2023/07/29 12:55:37;;;;;;;2.87;1.97;;;;;;;;;;4979942;28;20642;-51
2023/07/29 12:58:03;;;;;;;2.13;2.00;;;;;;;;;;4984807;28;20218;-51
2023/07/29 13:00:29;;;;;;;2.37;2.20;;;;;;;;;;4983707;28;20192;-51
2023/07/29 13:02:55;;;;;;;2.33;2.23;;;;;;;;;;4984062;28;20642;-51
2023/07/29 13:05:21;;;;;;;2.67;2.10;;;;;;;;;;4982618;28;20214;-51
2023/07/29 13:07:48;;;;;;;2.67;2.47;;;;;;;;;;4990535;28;20187;-51
2023/07/29 13:10:14;;;;;;;2.53;2.33;;;;;;;;;;4981199;28;20239;-51
2023/07/29 13:12:40;;;;;;;2.17;2.07;;;;;;;;;;4987175;28;20180;-52
2023/07/29 13:15:07;;;;;;;2.27;1.90;;;;;;;;;;4978416;28;20188;-51
2023/07/29 13:17:33;;;;;;;2.40;2.20;;;;;;;;;;4986247;28;20179;-51
2023/07/29 13:19:59;;;;;;;2.30;2.20;;;;;;;;;;4987442;28;20769;-51
2023/07/29 13:22:25;;;;;;;2.07;1.97;;;;;;;;;;4989166;28;20310;-51
2023/07/29 13:24:51;;;;;;;2.27;2.17;;;;;;;;;;4982786;28;20207;-51
2023/07/29 13:27:17;;;;;;;2.13;1.93;;;;;;;;;;4981603;28;20191;-51
2023/07/29 13:29:44;;;;;;;2.93;1.93;;;;;;;;;;4982062;28;20216;-51
2023/07/29 13:32:10;;;;;;;4.53;2.27;;;;;;;;;;4971324;28;20187;-53
2023/07/29 13:34:36;;;;;;;3.47;2.30;;;;;;;;;;4976240;28;20659;-54
2023/07/29 13:37:02;;;;;;;2.53;2.33;;;;;;;;;;4975251;28;20644;-54
2023/07/29 13:39:28;;;;;;;2.90;2.70;;;;;;;;;;4981694;28;20194;-53
2023/07/29 13:41:55;;;;;;;2.40;2.30;;;;;;;;;;4978995;28;20191;-54
2023/07/29 13:44:21;;;;;;;2.40;2.20;;;;;;;;;;4981391;28;20624;-51
2023/07/29 13:46:47;;;;;;;3.00;2.70;;;;;;;;;;4972681;28;20188;-52
2023/07/29 13:49:13;;;;;;;3.17;2.87;;;;;;;;;;4976905;28;20184;-54
2023/07/29 13:51:39;;;;;;;3.80;2.30;;;;;;;;;;4975324;28;20295;-54
2023/07/29 13:54:05;;;;;;;3.10;2.77;;;;;;;;;;4988380;28;20588;-54
2023/07/29 13:56:31;;;;;;;2.47;2.27;;;;;;;;;;4983280;28;20549;-54
2023/07/29 13:58:57;;;;;;;4.17;2.70;;;;;;;;;;4986274;28;20187;-55
2023/07/29 14:01:23;;;;;;;3.70;2.90;;;;;;;;;;4987656;28;20187;-55
2023/07/29 14:03:49;;;;;;;3.83;2.90;;;;;;;;;;4979001;28;20187;-54
2023/07/29 14:06:15;;;;;;;4.97;2.80;;;;;;;;;;4979698;28;20211;-55
2023/07/29 14:08:41;;;;;;;7.23;3.23;;;;;;;;;;4977657;28;20784;-54
2023/07/29 14:11:08;;;;;;;5.10;3.30;;;;;;;;;;4981273;28;20176;-54
2023/07/29 14:13:34;;;;;;;5.97;3.07;;;;;;;;;;4975664;28;20684;-55
2023/07/29 14:16:03;;;;;;;3.60;3.30;;;;;;;;;;4972186;28;20195;-54
2023/07/29 14:18:29;;;;;;;2.63;2.43;;;;;;;;;;4978075;28;20199;-54
2023/07/29 14:20:55;;;;;;;8.40;4.00;;;;;;;;;;4982343;28;20195;-54
2023/07/29 14:23:21;;;;;;;3.30;3.07;;;;;;;;;;4972170;28;20435;-55
2023/07/29 14:25:47;;;;;;;3.40;3.10;;;;;;;;;;4980979;28;20566;-54
2023/07/29 14:28:14;;;;;;;4.03;3.50;;;;;;;;;;4982003;28;20681;-53
2023/07/29 14:30:41;;;;;;;3.03;2.83;;;;;;;;;;4973792;28;20297;-53
2023/07/29 14:33:07;;;;;;;3.53;3.03;;;;;;;;;;4973414;28;20193;-53
2023/07/29 14:35:33;;;;;;;3.17;2.87;;;;;;;;;;4975245;28;20814;-54
2023/07/29 14:37:59;;;;;;;3.07;2.87;;;;;;;;;;4976783;28;20172;-53
2023/07/29 14:40:26;;;;;;;3.43;3.07;;;;;;;;;;4983007;28;20249;-53